Terminal Aerodrome Forecast
Issued by NWS Sterling, VA

Current Version | Previous Version | Graphics & Text | Print | Product List | Glossary On
Versions: 1 2 3 4 5 6 7 8 9 10 11 12 13 14 15 16
000
FTUS41 KLWX 252300
TAFMRB
TAF
KMRB 252331Z 2600/2624 31004KT P6SM SCT250
     FM260700 36005KT P6SM OVC100
     FM260900 01007KT P6SM -RASN OVC060
     FM261200 02006KT 2SM -SN SCT015 OVC025
     FM261800 36005KT 4SM -SN SCT003 BKN009
     FM262100 33007KT P6SM OVC008=

USA.gov is the U.S. government's official web portal to all federal, state and local government web resources and services.